Time;durP1;ratioP1;P1;durP2;ratioP2;P2;SDS_P1;SDS_P2;PMS_P1;PMS_P2;Temp;Humidity;BMP_temperature;BMP_pressure;BME280_temperature;BME280_humidity;BME280_pressure;Samples;Min_cycle;Max_cycle;Signal;HPM_P1;HPM_P2
2023/04/19 00:00:34;;;;;;;1.63;1.40;;;9.60;99.90;;;;;;5073067;28;20485;-82
2023/04/19 00:03:02;;;;;;;1.80;1.47;;;9.50;99.90;;;;;;5073510;28;20449;-82
2023/04/19 00:05:29;;;;;;;3.20;1.53;;;9.50;99.90;;;;;;5073534;28;20491;-82
2023/04/19 00:07:55;;;;;;;4.10;1.97;;;9.50;99.90;;;;;;5073501;28;20453;-82
2023/04/19 00:10:22;;;;;;;10.07;2.80;;;9.50;99.90;;;;;;5072987;28;21000;-82
2023/04/19 00:12:49;;;;;;;4.90;2.00;;;9.40;99.90;;;;;;5073570;28;20836;-82
2023/04/19 00:15:15;;;;;;;1.33;1.23;;;9.40;99.90;;;;;;5073428;28;20452;-82
2023/04/19 00:17:42;;;;;;;5.00;2.10;;;9.40;99.90;;;;;;5073103;28;20449;-83
2023/04/19 00:20:11;;;;;;;4.70;2.00;;;9.50;99.90;;;;;;5072957;28;20879;-82
2023/04/19 00:22:38;;;;;;;1.60;1.43;;;9.40;99.90;;;;;;5073347;28;20447;-83
2023/04/19 00:25:05;;;;;;;2.33;1.63;;;9.40;99.90;;;;;;5073297;28;20449;-83
2023/04/19 00:27:32;;;;;;;2.07;1.70;;;9.40;99.90;;;;;;5073281;28;20442;-83
2023/04/19 00:29:59;;;;;;;4.90;2.60;;;9.40;99.90;;;;;;5073100;28;20489;-83
2023/04/19 00:32:26;;;;;;;5.00;1.90;;;9.40;99.90;;;;;;5072945;28;20445;-83
2023/04/19 00:34:52;;;;;;;4.10;1.87;;;9.40;99.90;;;;;;5073171;28;20478;-83
2023/04/19 00:37:20;;;;;;;1.37;1.27;;;9.50;99.90;;;;;;5072907;28;20452;-83
2023/04/19 00:39:47;;;;;;;2.33;1.47;;;9.50;99.90;;;;;;5073475;28;20851;-83
2023/04/19 00:42:14;;;;;;;7.43;2.80;;;9.50;99.90;;;;;;5073129;28;20856;-83
2023/04/19 00:44:40;;;;;;;2.33;1.70;;;9.50;99.90;;;;;;5073134;28;20438;-83
2023/04/19 00:47:07;;;;;;;4.50;2.60;;;9.40;99.90;;;;;;5073105;28;20502;-83
2023/04/19 00:49:34;;;;;;;3.37;1.20;;;9.50;99.90;;;;;;5072946;28;20469;-83
2023/04/19 00:52:01;;;;;;;1.67;1.57;;;9.40;99.90;;;;;;5075726;28;20941;-83
2023/04/19 00:54:30;;;;;;;5.13;1.43;;;9.40;99.90;;;;;;5077018;28;20445;-83
2023/04/19 00:56:57;;;;;;;2.40;1.50;;;9.40;99.90;;;;;;5076659;28;20952;-83
2023/04/19 00:59:25;;;;;;;4.87;2.47;;;9.50;99.90;;;;;;5076776;28;20454;-83
2023/04/19 01:01:51;;;;;;;2.13;2.00;;;9.40;99.90;;;;;;5076394;28;20485;-83
2023/04/19 01:04:18;;;;;;;3.20;1.33;;;9.40;99.90;;;;;;5076665;28;20457;-83
2023/04/19 01:06:45;;;;;;;6.50;2.90;;;9.30;99.90;;;;;;5076770;28;20450;-82
2023/04/19 01:09:12;;;;;;;3.80;2.00;;;9.40;99.90;;;;;;5076613;28;20492;-83
2023/04/19 01:11:40;;;;;;;4.57;2.30;;;9.30;99.90;;;;;;5076591;28;20480;-82
2023/04/19 01:14:06;;;;;;;5.40;2.00;;;9.30;99.90;;;;;;5076643;28;20473;-82
2023/04/19 01:16:35;;;;;;;3.73;2.40;;;9.20;99.90;;;;;;5076282;28;20445;-82
2023/04/19 01:19:02;;;;;;;3.30;2.10;;;9.20;99.90;;;;;;5076510;28;20441;-83
2023/04/19 01:21:29;;;;;;;4.97;2.47;;;9.30;99.90;;;;;;5076449;28;20466;-83
2023/04/19 01:23:57;;;;;;;4.70;2.00;;;9.20;99.90;;;;;;5076461;28;20461;-83
2023/04/19 01:26:24;;;;;;;5.07;1.90;;;9.20;99.90;;;;;;5076382;28;20456;-82
2023/04/19 01:28:51;;;;;;;2.50;1.40;;;9.30;99.90;;;;;;5076238;28;20488;-83
2023/04/19 01:31:17;;;;;;;1.37;1.27;;;9.20;99.90;;;;;;5075977;28;20988;-82
2023/04/19 01:33:44;;;;;;;1.37;1.27;;;9.30;99.90;;;;;;5076252;28;20514;-82
2023/04/19 01:36:11;;;;;;;5.03;2.17;;;9.20;99.90;;;;;;5076187;28;20507;-82
2023/04/19 01:38:38;;;;;;;4.03;2.27;;;9.20;99.90;;;;;;5076167;28;20450;-82
2023/04/19 01:41:06;;;;;;;6.83;3.00;;;9.20;99.90;;;;;;5076050;28;20474;-80
2023/04/19 01:43:33;;;;;;;7.60;2.20;;;9.10;99.90;;;;;;5075787;28;21007;-82
2023/04/19 01:46:00;;;;;;;2.77;1.40;;;9.20;99.90;;;;;;5076070;28;20450;-83
2023/04/19 01:48:26;;;;;;;3.43;1.80;;;9.20;99.90;;;;;;5075721;28;20449;-83
2023/04/19 01:50:53;;;;;;;3.30;1.90;;;9.20;99.90;;;;;;5075480;28;21057;-80
2023/04/19 01:53:20;;;;;;;9.00;3.27;;;9.10;99.90;;;;;;5075928;28;20492;-80
2023/04/19 01:55:46;;;;;;;3.40;1.93;;;9.10;99.90;;;;;;5075937;28;20567;-80
2023/04/19 01:58:14;;;;;;;6.53;2.30;;;9.10;99.90;;;;;;5075521;28;20445;-80
2023/04/19 02:00:41;;;;;;;1.33;1.23;;;9.10;99.90;;;;;;5075366;28;20484;-80
2023/04/19 02:03:08;;;;;;;4.30;2.40;;;9.10;99.90;;;;;;5075584;28;20833;-86
2023/04/19 02:05:34;;;;;;;3.97;1.97;;;9.10;99.90;;;;;;5076103;28;20441;-85
2023/04/19 02:08:01;;;;;;;8.27;3.27;;;9.10;99.90;;;;;;5076064;28;20454;-86
2023/04/19 02:10:28;;;;;;;2.40;2.30;;;9.10;99.90;;;;;;5075785;28;20490;-86
2023/04/19 02:12:55;;;;;;;4.17;2.43;;;9.10;99.90;;;;;;5075954;28;20453;-86
2023/04/19 02:15:23;;;;;;;2.43;1.33;;;9.10;99.90;;;;;;5076468;28;20808;-85
2023/04/19 02:17:50;;;;;;;3.67;1.87;;;9.10;99.90;;;;;;5075677;28;20438;-85
2023/04/19 02:20:16;;;;;;;3.40;1.60;;;9.10;99.90;;;;;;5075628;28;20469;-85
2023/04/19 02:22:43;;;;;;;1.63;1.50;;;9.10;99.90;;;;;;5075681;28;20456;-86
2023/04/19 02:25:10;;;;;;;5.63;2.90;;;9.10;99.90;;;;;;5075706;28;20441;-88
2023/04/19 02:27:37;;;;;;;3.50;2.07;;;9.10;99.90;;;;;;5075768;28;20450;-86
2023/04/19 02:30:04;;;;;;;3.87;1.53;;;9.00;99.90;;;;;;5075529;28;20504;-85
2023/04/19 02:32:32;;;;;;;1.77;1.53;;;9.00;99.90;;;;;;5076147;28;20460;-86
2023/04/19 02:34:59;;;;;;;2.70;1.67;;;9.00;99.90;;;;;;5075582;28;20448;-86
2023/04/19 02:37:26;;;;;;;6.13;3.07;;;8.90;99.90;;;;;;5075497;28;20472;-85
2023/04/19 02:39:52;;;;;;;5.00;1.97;;;8.90;99.90;;;;;;5075278;28;20810;-85
2023/04/19 02:42:19;;;;;;;2.57;1.50;;;9.00;99.90;;;;;;5075370;28;20434;-85
2023/04/19 02:44:46;;;;;;;4.90;2.57;;;8.90;99.90;;;;;;5075305;28;20495;-86
2023/04/19 02:47:12;;;;;;;7.30;3.33;;;8.90;99.90;;;;;;5075592;28;20461;-86
2023/04/19 02:49:41;;;;;;;2.90;1.80;;;8.90;99.90;;;;;;5074935;28;20481;-85
2023/04/19 02:52:08;;;;;;;6.53;2.17;;;8.90;99.90;;;;;;5074690;28;20936;-79
2023/04/19 02:54:35;;;;;;;5.87;2.50;;;8.90;99.90;;;;;;5074758;28;20862;-79
2023/04/19 02:57:01;;;;;;;3.37;1.37;;;8.90;99.90;;;;;;5074687;28;20445;-79
2023/04/19 02:59:28;;;;;;;2.63;2.13;;;8.90;99.90;;;;;;5074302;28;20925;-79
2023/04/19 03:01:55;;;;;;;5.60;1.90;;;8.90;99.90;;;;;;5074123;28;20485;-79
2023/04/19 03:04:21;;;;;;;5.07;2.23;;;8.90;99.90;;;;;;5074516;28;20440;-79
2023/04/19 03:06:49;;;;;;;7.83;2.27;;;8.90;99.90;;;;;;5074142;28;20991;-79
2023/04/19 03:09:16;;;;;;;2.03;1.73;;;8.90;99.90;;;;;;5074437;28;20450;-79
2023/04/19 03:11:43;;;;;;;3.30;1.80;;;8.90;99.90;;;;;;5074253;28;20498;-79
2023/04/19 03:14:10;;;;;;;7.27;2.90;;;8.90;99.90;;;;;;5074258;28;20449;-79
2023/04/19 03:16:37;;;;;;;8.07;2.50;;;8.90;99.90;;;;;;5074331;28;20446;-79
2023/04/19 03:19:03;;;;;;;5.77;2.67;;;8.90;99.90;;;;;;5074245;28;20480;-79
2023/04/19 03:21:30;;;;;;;4.70;2.40;;;8.90;99.90;;;;;;5074171;28;20465;-79
2023/04/19 03:23:58;;;;;;;5.77;2.87;;;8.80;99.90;;;;;;5073902;28;20468;-79
2023/04/19 03:26:25;;;;;;;2.90;2.33;;;8.80;99.90;;;;;;5073785;28;20808;-79
2023/04/19 03:28:52;;;;;;;4.30;2.30;;;8.90;99.90;;;;;;5074079;28;20445;-79
2023/04/19 03:31:18;;;;;;;6.77;2.00;;;8.80;99.90;;;;;;5073911;28;20497;-79
2023/04/19 03:33:45;;;;;;;3.40;1.60;;;8.80;99.90;;;;;;5074012;28;20503;-79
2023/04/19 03:36:12;;;;;;;8.90;2.60;;;8.80;99.90;;;;;;5073913;28;20449;-80
2023/04/19 03:38:39;;;;;;;6.33;2.50;;;8.80;99.90;;;;;;5073933;28;20450;-80
2023/04/19 03:41:18;;;;;;;4.50;2.33;;;8.80;99.90;;;;;;5073745;28;20465;-80
2023/04/19 03:43:45;;;;;;;4.70;2.30;;;8.80;99.90;;;;;;5073887;28;20460;-80
2023/04/19 03:46:11;;;;;;;3.40;2.20;;;8.80;99.90;;;;;;5073517;28;20434;-80
2023/04/19 03:48:38;;;;;;;2.77;1.37;;;8.80;99.90;;;;;;5073752;28;20453;-80
2023/04/19 03:51:05;;;;;;;5.43;3.13;;;8.80;99.90;;;;;;5073579;28;20484;-80
2023/04/19 03:53:31;;;;;;;2.50;1.80;;;8.80;99.90;;;;;;5073665;28;20446;-80
2023/04/19 03:55:58;;;;;;;4.77;2.00;;;8.80;99.90;;;;;;5073313;28;20952;-80
2023/04/19 03:58:26;;;;;;;6.33;2.77;;;8.80;99.90;;;;;;5073567;28;20507;-80
2023/04/19 04:00:53;;;;;;;2.80;2.10;;;8.80;99.90;;;;;;5073197;28;20551;-80
2023/04/19 04:03:20;;;;;;;7.60;2.97;;;8.80;99.90;;;;;;5073542;28;20445;-80
2023/04/19 04:05:46;;;;;;;5.27;2.80;;;8.80;99.90;;;;;;5073526;28;20499;-80
2023/04/19 04:08:13;;;;;;;2.83;1.83;;;8.80;99.90;;;;;;5073172;28;20956;-80
2023/04/19 04:10:40;;;;;;;4.10;2.40;;;8.80;99.90;;;;;;5073312;28;20489;-80
2023/04/19 04:13:06;;;;;;;1.57;1.47;;;8.70;99.90;;;;;;5073078;28;20930;-80
2023/04/19 04:15:34;;;;;;;3.60;2.30;;;8.70;99.90;;;;;;5073420;28;20464;-81
2023/04/19 04:18:01;;;;;;;3.13;1.67;;;8.70;99.90;;;;;;5073395;28;20449;-81
2023/04/19 04:20:28;;;;;;;4.93;2.20;;;8.60;99.90;;;;;;5073262;28;20503;-81
2023/04/19 04:22:55;;;;;;;5.53;2.70;;;8.60;99.90;;;;;;5073343;28;20859;-81
2023/04/19 04:25:21;;;;;;;4.30;2.53;;;8.50;99.90;;;;;;5072755;28;20446;-81
2023/04/19 04:27:50;;;;;;;4.60;2.50;;;8.50;99.90;;;;;;5073292;28;20449;-81
2023/04/19 04:30:17;;;;;;;11.90;2.73;;;8.50;99.90;;;;;;5073080;28;20485;-81
2023/04/19 04:32:46;;;;;;;3.13;2.23;;;8.60;99.90;;;;;;5073234;28;20457;-82
2023/04/19 04:35:13;;;;;;;6.90;3.00;;;8.50;99.90;;;;;;5073194;28;20464;-81
2023/04/19 04:37:40;;;;;;;5.03;1.63;;;8.60;99.90;;;;;;5073183;28;20460;-82
2023/04/19 04:40:07;;;;;;;5.30;3.50;;;8.70;99.90;;;;;;5072749;28;20578;-82
2023/04/19 04:42:36;;;;;;;3.33;2.27;;;8.70;99.90;;;;;;5072816;28;20828;-82
2023/04/19 04:45:03;;;;;;;2.50;1.97;;;8.60;99.90;;;;;;5073100;28;20456;-82
2023/04/19 04:47:31;;;;;;;4.47;3.03;;;8.70;99.90;;;;;;5073069;28;20533;-82
2023/04/19 04:50:01;;;;;;;4.10;2.10;;;8.70;99.90;;;;;;5072929;28;20509;-82
2023/04/19 04:52:28;;;;;;;12.63;2.83;;;8.70;99.90;;;;;;5072789;28;20947;-82
2023/04/19 04:54:54;;;;;;;4.93;1.70;;;8.70;99.90;;;;;;5073044;28;20456;-82
2023/04/19 04:57:21;;;;;;;7.73;3.20;;;8.70;99.90;;;;;;5072737;28;20450;-82
2023/04/19 04:59:48;;;;;;;3.50;1.90;;;8.80;99.90;;;;;;5072640;28;20449;-82
2023/04/19 05:02:14;;;;;;;7.63;2.93;;;8.90;99.90;;;;;;5073018;28;20437;-82
2023/04/19 05:04:41;;;;;;;4.10;1.73;;;8.80;99.90;;;;;;5072871;28;20454;-82
2023/04/19 05:07:09;;;;;;;8.37;2.30;;;8.80;99.90;;;;;;5072914;28;20441;-82
2023/04/19 05:09:36;;;;;;;6.90;3.23;;;8.80;99.90;;;;;;5072766;28;20498;-82
2023/04/19 05:12:03;;;;;;;6.80;3.50;;;8.80;99.90;;;;;;5072787;28;20473;-82
2023/04/19 05:14:30;;;;;;;3.93;1.93;;;8.90;99.90;;;;;;5072873;28;20449;-82
2023/04/19 05:16:56;;;;;;;4.87;2.57;;;8.90;99.90;;;;;;5072835;28;20484;-82
2023/04/19 05:19:23;;;;;;;5.77;2.53;;;8.90;99.90;;;;;;5072661;28;20462;-82
2023/04/19 05:21:50;;;;;;;2.30;1.60;;;8.90;99.90;;;;;;5072715;28;20457;-82
2023/04/19 05:24:18;;;;;;;8.73;2.80;;;8.90;99.90;;;;;;5072440;28;20963;-82
2023/04/19 05:26:44;;;;;;;5.50;2.43;;;9.00;99.90;;;;;;5072734;28;20449;-82
2023/04/19 05:29:11;;;;;;;4.50;2.80;;;9.00;99.90;;;;;;5072759;28;20456;-82
2023/04/19 05:31:38;;;;;;;2.40;1.40;;;8.90;99.90;;;;;;5072532;28;20485;-82
2023/04/19 05:34:04;;;;;;;4.07;2.20;;;8.90;99.90;;;;;;5072662;28;20450;-81
2023/04/19 05:36:31;;;;;;;4.97;3.00;;;8.90;99.90;;;;;;5072374;28;20483;-82
2023/04/19 05:38:58;;;;;;;8.50;2.87;;;8.80;99.90;;;;;;5075190;28;20481;-82
2023/04/19 05:41:26;;;;;;;6.50;2.33;;;8.80;99.90;;;;;;5076063;28;20468;-82
2023/04/19 05:43:52;;;;;;;2.50;1.83;;;8.80;99.90;;;;;;5075766;28;20445;-81
2023/04/19 05:46:19;;;;;;;2.60;1.50;;;8.80;99.90;;;;;;5076068;28;20445;-81
2023/04/19 05:48:46;;;;;;;6.13;2.90;;;8.80;99.90;;;;;;5075730;28;20450;-81
2023/04/19 05:51:14;;;;;;;2.33;2.00;;;8.90;99.90;;;;;;5075662;28;20516;-81
2023/04/19 05:53:40;;;;;;;2.60;1.53;;;8.90;99.90;;;;;;5075971;28;20815;-81
2023/04/19 05:56:07;;;;;;;5.97;2.93;;;8.90;99.90;;;;;;5075856;28;20519;-81
2023/04/19 05:58:35;;;;;;;8.77;3.77;;;8.80;99.90;;;;;;5075834;28;20453;-81
2023/04/19 06:01:03;;;;;;;5.17;2.57;;;8.80;99.90;;;;;;5075500;28;20481;-80
2023/04/19 06:03:30;;;;;;;3.80;2.57;;;8.80;99.90;;;;;;5075752;28;20453;-81
2023/04/19 06:05:56;;;;;;;8.43;2.73;;;8.90;99.90;;;;;;5075389;28;20944;-81
2023/04/19 06:08:23;;;;;;;9.30;3.23;;;8.90;99.90;;;;;;5075656;28;20460;-81
2023/04/19 06:10:50;;;;;;;3.53;2.27;;;8.90;99.90;;;;;;5075496;28;20556;-81
2023/04/19 06:13:16;;;;;;;4.73;1.97;;;8.90;99.90;;;;;;5075559;28;20445;-81
2023/04/19 06:15:45;;;;;;;4.57;1.80;;;8.90;99.90;;;;;;5076102;28;20794;-81
2023/04/19 06:18:12;;;;;;;5.27;3.13;;;8.90;99.90;;;;;;5075333;28;20445;-81
2023/04/19 06:20:40;;;;;;;8.57;2.57;;;8.80;99.90;;;;;;5075903;28;20980;-81
2023/04/19 06:23:07;;;;;;;10.43;1.90;;;8.90;99.90;;;;;;5075392;28;20860;-81
2023/04/19 06:25:34;;;;;;;7.10;1.93;;;8.90;99.90;;;;;;5075304;28;20453;-81
2023/04/19 06:28:01;;;;;;;6.60;2.43;;;8.90;99.90;;;;;;5075326;28;20445;-81
2023/04/19 06:30:27;;;;;;;8.80;4.13;;;8.90;99.90;;;;;;5075096;28;20585;-81
2023/04/19 06:32:55;;;;;;;6.37;2.70;;;8.90;99.90;;;;;;5075183;28;20445;-81
2023/04/19 06:35:24;;;;;;;2.53;1.20;;;8.90;99.90;;;;;;5074894;28;20811;-81
2023/04/19 06:37:50;;;;;;;3.40;1.97;;;8.90;99.90;;;;;;5074776;28;20999;-81
2023/04/19 06:40:17;;;;;;;6.90;2.73;;;9.00;99.90;;;;;;5074954;28;20465;-81
2023/04/19 06:42:44;;;;;;;4.27;2.53;;;9.00;99.90;;;;;;5074998;28;20846;-80
2023/04/19 06:45:11;;;;;;;2.13;1.33;;;9.00;99.90;;;;;;5075000;28;20433;-80
2023/04/19 06:47:38;;;;;;;4.67;1.73;;;9.00;99.90;;;;;;5074949;28;20487;-80
2023/04/19 06:50:07;;;;;;;4.43;1.90;;;9.00;99.90;;;;;;5074328;28;20470;-80
2023/04/19 06:52:34;;;;;;;1.63;1.53;;;9.00;99.90;;;;;;5074765;28;20487;-80
2023/04/19 06:55:01;;;;;;;4.27;2.10;;;9.10;99.90;;;;;;5074763;28;20456;-81
2023/04/19 06:57:28;;;;;;;10.47;3.40;;;9.00;99.90;;;;;;5074460;28;20920;-81
2023/04/19 06:59:55;;;;;;;5.37;3.40;;;9.00;99.90;;;;;;5074378;28;20473;-80
2023/04/19 07:02:22;;;;;;;4.13;2.10;;;9.10;99.90;;;;;;5074378;28;20438;-81
2023/04/19 07:04:48;;;;;;;4.27;1.83;;;9.30;99.90;;;;;;5074217;28;20790;-80
2023/04/19 07:07:16;;;;;;;4.80;2.33;;;9.50;99.90;;;;;;5074362;28;20449;-81
2023/04/19 07:09:43;;;;;;;4.70;2.30;;;9.50;99.90;;;;;;5074365;28;20453;-81
2023/04/19 07:12:10;;;;;;;4.77;2.43;;;9.60;99.90;;;;;;5074087;28;20476;-81
2023/04/19 07:14:36;;;;;;;4.13;2.33;;;9.60;99.90;;;;;;5074379;28;20485;-80
2023/04/19 07:17:04;;;;;;;5.17;1.67;;;9.60;99.90;;;;;;5074342;28;20476;-80
2023/04/19 07:19:31;;;;;;;5.93;3.53;;;9.60;99.90;;;;;;5074218;28;20449;-80
2023/04/19 07:21:57;;;;;;;2.70;1.63;;;9.60;99.90;;;;;;5074126;28;20476;-80
2023/04/19 07:24:26;;;;;;;5.50;3.13;;;9.60;99.90;;;;;;5074135;28;20502;-80
2023/04/19 07:26:53;;;;;;;6.17;2.63;;;9.60;99.90;;;;;;5074103;28;20464;-81
2023/04/19 07:29:20;;;;;;;3.20;2.23;;;9.60;99.90;;;;;;5074079;28;20456;-82
2023/04/19 07:31:46;;;;;;;4.43;2.10;;;9.70;99.90;;;;;;5073881;28;20485;-82
2023/04/19 07:34:13;;;;;;;4.07;2.50;;;9.70;99.90;;;;;;5073677;28;20965;-82
2023/04/19 07:36:40;;;;;;;5.70;2.57;;;9.70;99.90;;;;;;5073984;28;20536;-82
2023/04/19 07:39:07;;;;;;;3.53;2.67;;;9.70;99.90;;;;;;5073649;28;20936;-82
2023/04/19 07:41:35;;;;;;;4.17;3.77;;;9.70;99.90;;;;;;5073822;28;20469;-82
2023/04/19 07:44:01;;;;;;;3.37;1.97;;;9.70;99.90;;;;;;5073712;28;20450;-82
2023/04/19 07:46:28;;;;;;;8.00;2.70;;;9.70;99.90;;;;;;5073432;28;20941;-81
2023/04/19 07:48:55;;;;;;;3.37;1.67;;;9.80;99.90;;;;;;5073743;28;20449;-82
2023/04/19 07:51:23;;;;;;;7.27;2.83;;;9.90;99.90;;;;;;5073439;28;20484;-82
2023/04/19 07:53:50;;;;;;;3.70;2.20;;;10.00;99.90;;;;;;5073733;28;20442;-82
2023/04/19 07:56:18;;;;;;;5.43;2.37;;;10.00;99.90;;;;;;5073371;28;20941;-81
2023/04/19 07:58:46;;;;;;;5.53;3.20;;;10.10;99.90;;;;;;5073603;28;20485;-81
2023/04/19 08:01:13;;;;;;;9.17;2.57;;;10.20;99.90;;;;;;5072423;28;20482;-81
2023/04/19 08:03:40;;;;;;;4.63;2.27;;;10.30;99.90;;;;;;5073252;28;20454;-82
2023/04/19 08:06:07;;;;;;;5.03;2.77;;;10.40;99.90;;;;;;5073563;28;20449;-82
2023/04/19 08:08:34;;;;;;;4.30;2.20;;;10.50;99.90;;;;;;5073468;28;20465;-82
2023/04/19 08:11:02;;;;;;;6.27;1.43;;;10.60;99.90;;;;;;5073342;28;20465;-81
2023/04/19 08:13:28;;;;;;;5.43;2.07;;;10.70;99.90;;;;;;5073462;28;20454;-82
2023/04/19 08:15:56;;;;;;;3.70;1.13;;;10.90;99.90;;;;;;5073398;28;20449;-81
2023/04/19 08:18:23;;;;;;;2.43;2.20;;;11.10;99.90;;;;;;5073973;28;20453;-79
2023/04/19 08:20:50;;;;;;;4.00;2.53;;;11.20;99.90;;;;;;5073276;28;20845;-79
2023/04/19 08:23:17;;;;;;;3.17;2.23;;;11.40;99.90;;;;;;5073353;28;20448;-79
2023/04/19 08:25:44;;;;;;;8.70;3.57;;;11.80;99.90;;;;;;5073323;28;20454;-81
2023/04/19 08:28:11;;;;;;;7.80;2.20;;;12.00;99.90;;;;;;5073333;28;20457;-80
2023/04/19 08:30:38;;;;;;;4.20;1.83;;;12.20;99.90;;;;;;5073214;28;20461;-79
2023/04/19 08:33:06;;;;;;;9.13;2.40;;;12.20;99.90;;;;;;5073491;28;20583;-80
2023/04/19 08:35:34;;;;;;;5.33;2.87;;;12.40;99.90;;;;;;5073195;28;20953;-79
2023/04/19 08:38:03;;;;;;;4.70;3.07;;;12.80;99.90;;;;;;5073373;28;20450;-79
2023/04/19 08:40:30;;;;;;;3.57;2.13;;;13.50;99.90;;;;;;5073394;28;20469;-80
2023/04/19 08:42:57;;;;;;;5.00;3.03;;;13.90;99.90;;;;;;5073463;28;20452;-79
2023/04/19 08:45:27;;;;;;;5.27;2.00;;;13.90;99.90;;;;;;5073296;28;20449;-79
2023/04/19 08:47:55;;;;;;;2.87;2.30;;;14.00;99.90;;;;;;5073329;28;20440;-79
2023/04/19 08:50:24;;;;;;;5.13;2.90;;;14.20;99.90;;;;;;5073164;28;20480;-78
2023/04/19 08:52:50;;;;;;;6.40;2.30;;;14.20;99.90;;;;;;5072859;28;20518;-79
2023/04/19 08:55:18;;;;;;;3.30;1.90;;;13.90;99.90;;;;;;5073164;28;20453;-79
2023/04/19 08:57:45;;;;;;;5.30;1.90;;;13.60;99.90;;;;;;5073225;28;20450;-81
2023/04/19 09:00:13;;;;;;;5.03;1.90;;;13.30;99.90;;;;;;5073553;28;20477;-82
2023/04/19 09:02:47;;;;;;;2.93;1.77;;;13.20;99.90;;;;;;5073246;28;20546;-83
2023/04/19 09:05:15;;;;;;;3.83;2.43;;;13.20;99.90;;;;;;5072925;28;20550;-83
2023/04/19 09:07:43;;;;;;;2.90;1.87;;;13.70;99.90;;;;;;5073339;28;20453;-80
2023/04/19 09:10:12;;;;;;;2.20;1.67;;;14.20;99.90;;;;;;5072990;28;20870;-78
2023/04/19 09:12:39;;;;;;;4.10;1.90;;;14.20;99.90;;;;;;5075092;28;20492;-80
2023/04/19 09:15:08;;;;;;;3.37;1.90;;;14.00;99.90;;;;;;5076765;28;20448;-78
2023/04/19 09:17:35;;;;;;;4.23;2.53;;;13.80;99.90;;;;;;5076785;28;20485;-80
2023/04/19 09:20:03;;;;;;;2.93;1.50;;;13.50;99.90;;;;;;5076589;28;20844;-79
2023/04/19 09:22:30;;;;;;;5.93;1.57;;;13.70;99.90;;;;;;5076671;28;20508;-80
2023/04/19 09:24:58;;;;;;;4.03;1.87;;;13.80;99.90;;;;;;5076523;28;20453;-80
2023/04/19 09:27:27;;;;;;;2.67;1.70;;;14.10;99.90;;;;;;5076297;28;20445;-80
2023/04/19 09:29:55;;;;;;;3.07;2.07;;;14.00;99.90;;;;;;5076431;28;20469;-79
2023/04/19 09:32:22;;;;;;;1.83;1.67;;;14.00;99.90;;;;;;5076377;28;20480;-81
2023/04/19 09:34:54;;;;;;;3.00;1.83;;;14.30;99.90;;;;;;5076487;28;20448;-80
2023/04/19 09:37:21;;;;;;;4.20;2.17;;;14.60;99.90;;;;;;5076457;28;20483;-80
2023/04/19 09:39:48;;;;;;;2.50;1.80;;;15.40;99.90;;;;;;5076303;28;20539;-77
2023/04/19 09:42:17;;;;;;;3.70;2.13;;;15.80;99.90;;;;;;5075979;28;20814;-81
2023/04/19 09:44:56;;;;;;;5.30;1.73;;;16.20;99.90;;;;;;5076141;28;20453;-77
2023/04/19 09:47:24;;;;;;;10.00;1.80;;;16.40;99.90;;;;;;5076139;28;20438;-76
2023/04/19 09:50:08;;;;;;;3.53;2.00;;;16.50;99.90;;;;;;5075669;28;20484;-77
2023/04/19 09:52:35;;;;;;;2.37;2.17;;;15.90;99.90;;;;;;5075960;28;20839;-77
2023/04/19 09:55:04;;;;;;;3.07;1.67;;;15.30;99.90;;;;;;5075965;28;20464;-77
2023/04/19 09:57:34;;;;;;;3.07;2.70;;;14.80;99.90;;;;;;5075883;28;20445;-77
2023/04/19 10:00:05;;;;;;;2.30;1.43;;;14.60;99.90;;;;;;5075536;28;20477;-77
2023/04/19 10:02:33;;;;;;;2.83;2.27;;;14.70;99.90;;;;;;5075821;28;20430;-77
2023/04/19 10:04:59;;;;;;;3.37;1.40;;;15.10;99.90;;;;;;5075785;28;20483;-77
2023/04/19 10:07:27;;;;;;;3.77;2.37;;;15.70;99.90;;;;;;5075670;28;20533;-77
2023/04/19 10:09:57;;;;;;;2.43;2.17;;;16.20;99.90;;;;;;5075320;28;20474;-77
2023/04/19 10:12:26;;;;;;;5.03;2.60;;;16.20;99.90;;;;;;5075555;28;20481;-77
2023/04/19 10:14:56;;;;;;;2.40;2.10;;;16.30;99.90;;;;;;5075592;28;20552;-77
2023/04/19 10:17:23;;;;;;;3.37;2.30;;;16.70;99.90;;;;;;5075532;28;20442;-76
2023/04/19 10:19:55;;;;;;;4.90;2.90;;;17.00;99.90;;;;;;5075306;28;20461;-76
2023/04/19 10:22:22;;;;;;;3.00;2.20;;;17.10;99.90;;;;;;5075508;28;20509;-76
2023/04/19 10:25:08;;;;;;;3.13;1.63;;;17.00;99.90;;;;;;5074588;28;20445;-76
2023/04/19 10:27:35;;;;;;;2.80;2.00;;;16.60;99.90;;;;;;5075352;28;20475;-76
2023/04/19 10:30:09;;;;;;;3.20;1.50;;;16.30;99.90;;;;;;5075300;28;20492;-76
2023/04/19 10:32:38;;;;;;;2.57;2.07;;;15.90;99.90;;;;;;5075769;28;20465;-76
2023/04/19 10:35:08;;;;;;;3.57;2.47;;;15.60;99.90;;;;;;5074911;28;20499;-76
2023/04/19 10:37:40;;;;;;;6.93;2.50;;;15.30;99.90;;;;;;5074856;28;20944;-77
2023/04/19 10:40:08;;;;;;;6.00;2.83;;;15.20;99.90;;;;;;5075411;28;20556;-76
2023/04/19 10:43:08;;;;;;;5.70;3.03;;;15.10;99.90;;;;;;5075040;28;20441;-76
2023/04/19 10:45:37;;;;;;;3.60;2.00;;;15.20;99.90;;;;;;5074772;28;20499;-77
2023/04/19 10:48:04;;;;;;;3.97;2.37;;;15.50;99.90;;;;;;5074608;28;20449;-77
2023/04/19 10:50:58;;;;;;;3.03;1.83;;;15.50;99.90;;;;;;5074524;28;20473;-77
2023/04/19 10:53:48;;;;;;;3.83;2.30;;;15.30;99.90;;;;;;5074826;28;20469;-76
2023/04/19 10:56:16;;;;;;;5.80;3.00;;;14.90;99.90;;;;;;5074826;28;20438;-76
2023/04/19 10:59:20;;;;;;;3.00;2.23;;;14.70;99.90;;;;;;5074829;28;20524;-76
2023/04/19 11:01:50;;;;;;;5.23;2.50;;;14.40;99.90;;;;;;5074237;28;20481;-76
2023/04/19 11:04:19;;;;;;;4.17;2.00;;;14.40;99.90;;;;;;5074844;28;20524;-77
2023/04/19 11:07:01;;;;;;;5.57;2.97;;;14.50;99.90;;;;;;5074540;28;20485;-76
2023/04/19 11:09:29;;;;;;;6.77;2.90;;;14.50;99.90;;;;;;5074592;28;20434;-77
2023/04/19 11:11:59;;;;;;;4.80;1.73;;;14.60;99.90;;;;;;5073945;28;20469;-76
2023/04/19 11:14:27;;;;;;;4.00;1.93;;;14.70;99.90;;;;;;5074555;28;20426;-81
2023/04/19 11:16:55;;;;;;;4.20;1.80;;;14.80;99.90;;;;;;5074575;28;20441;-81
2023/04/19 11:19:21;;;;;;;3.57;2.33;;;15.00;99.90;;;;;;5074168;28;21002;-81
2023/04/19 11:21:49;;;;;;;2.70;2.23;;;15.10;99.90;;;;;;5074206;28;20465;-81
2023/04/19 11:24:17;;;;;;;4.33;2.10;;;14.90;99.90;;;;;;5074407;28;20809;-85
2023/04/19 11:26:44;;;;;;;3.30;2.00;;;14.70;99.90;;;;;;5075455;28;20449;-88
2023/04/19 11:29:11;;;;;;;5.70;2.80;;;14.50;99.90;;;;;;5075610;28;20548;-88
2023/04/19 11:31:38;;;;;;;9.93;3.70;;;14.30;99.90;;;;;;5075369;28;20968;-89
2023/04/19 11:34:06;;;;;;;3.13;2.00;;;14.20;99.90;;;;;;5075244;28;20474;-89
2023/04/19 11:36:35;;;;;;;7.60;1.83;;;13.90;99.90;;;;;;5075532;28;20449;-88
2023/04/19 11:39:04;;;;;;;5.30;2.43;;;13.70;99.90;;;;;;5075594;28;20453;-88
2023/04/19 11:41:38;;;;;;;3.43;2.10;;;13.50;99.90;;;;;;5075545;28;20466;-88
2023/04/19 11:44:04;;;;;;;1.97;1.70;;;13.40;99.90;;;;;;5075722;28;20480;-88
2023/04/19 11:46:31;;;;;;;4.70;2.47;;;13.20;99.90;;;;;;5075633;28;20485;-87
2023/04/19 11:48:58;;;;;;;3.50;2.23;;;13.00;99.90;;;;;;5075205;28;20449;-88
2023/04/19 11:51:26;;;;;;;7.30;2.40;;;12.90;99.90;;;;;;5075504;28;20470;-88
2023/04/19 11:53:53;;;;;;;3.60;2.30;;;12.90;99.90;;;;;;5074461;28;20891;-88
2023/04/19 11:56:20;;;;;;;2.13;1.83;;;12.80;99.90;;;;;;5074414;28;20446;-88
2023/04/19 11:58:47;;;;;;;1.83;1.33;;;12.90;99.90;;;;;;5074548;28;20448;-88
2023/04/19 12:01:15;;;;;;;1.27;1.27;;;12.90;99.90;;;;;;5073876;28;20489;-88
2023/04/19 12:03:47;;;;;;;5.30;2.03;;;12.90;99.90;;;;;;5074779;28;20441;-88
2023/04/19 12:06:16;;;;;;;7.80;3.03;;;12.80;99.90;;;;;;5074456;28;20429;-88
2023/04/19 12:08:46;;;;;;;3.30;2.17;;;12.80;99.90;;;;;;5074631;28;20441;-88
2023/04/19 12:11:14;;;;;;;3.40;1.90;;;12.80;99.90;;;;;;5074517;28;20556;-88
2023/04/19 12:13:43;;;;;;;3.63;2.27;;;12.70;99.90;;;;;;5074544;28;20491;-88
2023/04/19 12:16:11;;;;;;;4.47;2.27;;;12.70;99.90;;;;;;5074570;28;20468;-89
2023/04/19 12:18:47;;;;;;;4.83;2.60;;;12.50;99.90;;;;;;5074364;28;20457;-89
2023/04/19 12:21:27;;;;;;;8.40;2.57;;;12.40;99.90;;;;;;5074141;28;21003;-88
2023/04/19 12:23:57;;;;;;;5.40;1.73;;;12.30;99.90;;;;;;5074551;28;20433;-89
2023/04/19 12:26:24;;;;;;;3.03;1.50;;;12.20;99.90;;;;;;5074300;28;20532;-88
2023/04/19 12:28:50;;;;;;;3.47;1.97;;;12.10;99.90;;;;;;5074169;28;20456;-88
2023/04/19 12:31:19;;;;;;;6.60;2.50;;;12.00;99.90;;;;;;5074156;28;20470;-89
2023/04/19 12:33:46;;;;;;;5.37;2.40;;;12.00;99.90;;;;;;5074763;28;20481;-87
2023/04/19 12:36:13;;;;;;;2.77;1.97;;;11.90;99.90;;;;;;5074712;28;20480;-88
2023/04/19 12:38:40;;;;;;;5.93;2.67;;;11.80;99.90;;;;;;5074635;28;20524;-88
2023/04/19 12:41:08;;;;;;;3.10;1.93;;;11.80;99.90;;;;;;5074503;28;20862;-87
2023/04/19 12:43:35;;;;;;;2.87;2.37;;;11.70;99.90;;;;;;5075147;28;20803;-88
2023/04/19 12:46:02;;;;;;;2.40;2.20;;;11.60;99.90;;;;;;5074548;28;20449;-88
2023/04/19 12:48:28;;;;;;;4.43;2.10;;;11.70;99.90;;;;;;5077972;28;20449;-88
2023/04/19 12:50:55;;;;;;;6.83;1.97;;;11.60;99.90;;;;;;5078346;28;20827;-88
2023/04/19 12:53:23;;;;;;;4.70;2.57;;;11.60;99.90;;;;;;5078379;28;20844;-88
2023/04/19 12:55:50;;;;;;;4.90;2.77;;;11.50;99.90;;;;;;5078106;28;20812;-88